createdAt,value
2023-03-13T00:00:37.489Z,4.22
2023-03-13T00:03:39.625Z,3.97
2023-03-13T00:06:42.370Z,4.00
2023-03-13T00:09:44.355Z,4.57
2023-03-13T00:12:46.660Z,4.18
2023-03-13T00:15:48.525Z,3.55
2023-03-13T00:18:52.736Z,2.83
2023-03-13T00:21:54.580Z,3.72
2023-03-13T00:24:56.538Z,2.97
2023-03-13T00:27:58.535Z,3.22
2023-03-13T00:31:19.984Z,3.15
2023-03-13T00:34:22.826Z,3.50
2023-03-13T00:37:24.634Z,2.80
2023-03-13T00:40:26.443Z,3.28
2023-03-13T00:43:29.009Z,3.00
2023-03-13T00:46:31.450Z,3.10
2023-03-13T00:49:33.611Z,2.60
2023-03-13T00:52:35.531Z,3.75
2023-03-13T00:55:37.497Z,3.33
2023-03-13T00:58:41.714Z,2.67
2023-03-13T01:01:43.666Z,2.97
2023-03-13T01:04:45.566Z,2.63
2023-03-13T01:07:47.338Z,3.40
2023-03-13T01:10:49.256Z,3.33
2023-03-13T01:13:57.936Z,3.00
2023-03-13T01:16:59.985Z,3.38
2023-03-13T01:20:01.762Z,2.90
2023-03-13T01:23:03.506Z,2.97
2023-03-13T01:26:06.978Z,2.83
2023-03-13T01:29:08.771Z,2.63
2023-03-13T01:32:10.595Z,2.15
2023-03-13T01:35:13.025Z,2.97
2023-03-13T01:38:15.399Z,3.08
2023-03-13T01:41:18.557Z,3.03
2023-03-13T01:44:27.238Z,2.08
2023-03-13T01:47:29.096Z,2.50
2023-03-13T01:50:31.068Z,2.22
2023-03-13T01:53:36.898Z,2.75
2023-03-13T01:56:50.736Z,2.30
2023-03-13T01:59:56.780Z,1.92
2023-03-13T02:03:05.063Z,1.63
2023-03-13T02:06:08.488Z,1.77
2023-03-13T02:12:18.559Z,1.50
2023-03-13T02:15:24.059Z,1.60
2023-03-13T02:18:26.676Z,2.05
2023-03-13T02:21:34.753Z,1.40
2023-03-13T02:25:02.130Z,1.63
2023-03-13T02:28:06.041Z,1.60
2023-03-13T02:31:08.933Z,1.60
2023-03-13T02:34:12.692Z,1.73
2023-03-13T02:37:15.512Z,2.17
2023-03-13T02:40:31.067Z,2.20
2023-03-13T02:43:36.379Z,2.13
2023-03-13T02:46:50.482Z,2.13
2023-03-13T02:49:52.485Z,2.00
2023-03-13T02:53:03.676Z,2.00
2023-03-13T02:56:06.272Z,2.20
2023-03-13T02:59:08.325Z,2.23
2023-03-13T03:02:10.197Z,2.22
2023-03-13T03:05:14.568Z,2.10
2023-03-13T03:08:16.370Z,2.00
2023-03-13T03:11:18.796Z,2.45
2023-03-13T03:14:20.839Z,2.20
2023-03-13T03:17:22.870Z,2.83
2023-03-13T03:20:24.791Z,2.05
2023-03-13T03:23:26.560Z,2.00
2023-03-13T03:26:28.586Z,1.98
2023-03-13T03:29:30.468Z,1.80
2023-03-13T03:32:32.414Z,1.80
2023-03-13T03:35:38.492Z,2.03
2023-03-13T03:38:41.313Z,2.08
2023-03-13T03:41:43.042Z,1.98
2023-03-13T03:44:44.954Z,1.48
2023-03-13T03:47:47.024Z,1.67
2023-03-13T03:50:49.038Z,1.63
2023-03-13T03:53:50.825Z,1.20
2023-03-13T03:56:52.579Z,1.52
2023-03-13T03:59:54.516Z,1.55
2023-03-13T04:02:56.375Z,1.90
2023-03-13T04:05:58.646Z,1.88
2023-03-13T04:09:00.402Z,1.90
2023-03-13T04:12:03.053Z,2.00
2023-03-13T04:15:05.561Z,2.05
2023-03-13T04:18:07.422Z,2.00
2023-03-13T04:21:09.165Z,2.22
2023-03-13T04:24:10.894Z,2.42
2023-03-13T04:27:12.701Z,2.80
2023-03-13T04:30:16.872Z,2.67
2023-03-13T04:33:20.261Z,2.92
2023-03-13T04:36:22.145Z,3.00
2023-03-13T04:39:25.406Z,2.90
2023-03-13T04:42:27.417Z,3.00
2023-03-13T04:45:29.342Z,3.05
2023-03-13T04:48:31.192Z,3.17
2023-03-13T04:51:32.996Z,3.03
2023-03-13T04:54:34.934Z,3.00
2023-03-13T04:57:36.947Z,2.80
2023-03-13T05:00:41.284Z,3.83
2023-03-13T05:03:43.302Z,2.70
2023-03-13T05:06:45.174Z,2.72
2023-03-13T05:09:46.977Z,2.50
2023-03-13T05:12:49.305Z,2.30
2023-03-13T05:15:51.348Z,2.42
2023-03-13T05:18:53.425Z,2.38
2023-03-13T05:21:55.210Z,2.45
2023-03-13T05:24:57.035Z,2.70
2023-03-13T05:27:59.043Z,2.30
2023-03-13T05:31:00.944Z,2.53
2023-03-13T05:34:02.926Z,1.92
2023-03-13T05:37:04.666Z,2.47
2023-03-13T05:40:07.045Z,2.65
2023-03-13T05:43:09.068Z,2.28
2023-03-13T05:46:10.958Z,2.30
2023-03-13T05:49:12.827Z,2.25
2023-03-13T05:52:14.737Z,2.65
2023-03-13T05:55:17.390Z,2.30
2023-03-13T05:58:19.582Z,2.47
2023-03-13T06:01:21.399Z,2.50
2023-03-13T06:04:23.510Z,2.67
2023-03-13T06:07:25.352Z,2.10
2023-03-13T06:10:28.094Z,2.70
2023-03-13T06:13:30.689Z,2.33
2023-03-13T06:16:32.536Z,2.53
2023-03-13T06:19:34.420Z,2.38
2023-03-13T06:22:36.424Z,2.30
2023-03-13T06:25:38.785Z,2.83
2023-03-13T06:28:40.593Z,2.40
2023-03-13T06:31:42.971Z,2.75
2023-03-13T06:34:44.984Z,2.50
2023-03-13T06:37:47.106Z,2.95
2023-03-13T06:40:48.908Z,2.45
2023-03-13T06:43:50.972Z,2.65
2023-03-13T06:46:53.042Z,2.60
2023-03-13T06:49:55.036Z,2.25
2023-03-13T06:52:57.625Z,2.97
2023-03-13T06:56:02.024Z,2.83
2023-03-13T06:59:04.354Z,2.65
2023-03-13T07:02:06.613Z,3.00
2023-03-13T07:05:09.004Z,2.97
2023-03-13T07:08:10.834Z,2.40
2023-03-13T07:11:14.325Z,3.22
2023-03-13T07:14:17.632Z,2.75
2023-03-13T07:17:19.735Z,2.95
2023-03-13T07:20:21.567Z,2.55
2023-03-13T07:23:24.338Z,2.90
2023-03-13T07:26:26.284Z,2.85
2023-03-13T07:29:28.152Z,2.90
2023-03-13T07:32:33.332Z,2.45
2023-03-13T07:35:35.318Z,2.47
2023-03-13T07:38:37.402Z,2.88
2023-03-13T07:41:40.101Z,2.60
2023-03-13T07:44:42.090Z,2.60
2023-03-13T07:47:44.139Z,2.72
2023-03-13T07:50:46.480Z,2.60
2023-03-13T07:53:48.595Z,2.40
2023-03-13T07:56:51.063Z,2.63
2023-03-13T07:59:52.963Z,2.73
2023-03-13T08:02:54.809Z,2.70
2023-03-13T08:06:18.207Z,2.63
2023-03-13T08:09:20.700Z,3.05
2023-03-13T08:12:22.548Z,2.70
2023-03-13T08:15:28.745Z,2.92
2023-03-13T08:18:35.968Z,2.42
2023-03-13T08:21:38.541Z,2.83
2023-03-13T08:24:40.514Z,2.50
2023-03-13T08:27:42.594Z,3.70
2023-03-13T08:30:44.504Z,3.20
2023-03-13T08:33:47.576Z,2.90
2023-03-13T08:36:49.505Z,2.67
2023-03-13T08:39:51.550Z,3.42
2023-03-13T08:42:54.531Z,3.22
2023-03-13T08:45:56.889Z,2.83
2023-03-13T08:48:58.927Z,2.80
2023-03-13T08:52:00.940Z,2.67
2023-03-13T08:55:02.967Z,3.53
2023-03-13T08:58:04.724Z,2.90
2023-03-13T09:01:09.755Z,2.60
2023-03-13T09:04:11.579Z,2.95
2023-03-13T09:07:13.801Z,2.47
2023-03-13T09:10:16.144Z,2.60
2023-03-13T09:13:18.408Z,2.50
2023-03-13T09:16:23.393Z,2.78
2023-03-13T09:19:25.273Z,2.55
2023-03-13T09:22:27.073Z,2.55
2023-03-13T09:25:28.858Z,2.47
2023-03-13T09:28:31.337Z,2.25
2023-03-13T09:31:34.087Z,2.33
2023-03-13T09:34:36.289Z,2.83
2023-03-13T09:37:38.068Z,2.50
2023-03-13T09:40:56.542Z,2.08
2023-03-13T09:44:16.642Z,2.35
2023-03-13T09:47:23.958Z,2.15
2023-03-13T09:50:43.793Z,2.53
2023-03-13T09:53:54.988Z,2.20
2023-03-13T09:57:29.869Z,2.45
2023-03-13T10:00:36.871Z,2.03
2023-03-13T10:03:44.814Z,2.00
2023-03-13T10:06:48.687Z,2.08
2023-03-13T10:09:50.513Z,1.75
2023-03-13T10:13:03.526Z,1.98
2023-03-13T10:16:20.615Z,1.83
2023-03-13T10:19:34.272Z,2.00
2023-03-13T10:25:40.428Z,2.40
2023-03-13T10:28:42.309Z,1.90
2023-03-13T10:31:51.231Z,1.58
2023-03-13T10:35:01.144Z,1.48
2023-03-13T10:38:20.029Z,1.70
2023-03-13T10:41:37.115Z,1.70
2023-03-13T10:44:38.932Z,1.50
2023-03-13T10:47:40.733Z,1.55
2023-03-13T10:50:45.655Z,1.90
2023-03-13T10:53:47.728Z,1.33
2023-03-13T10:57:07.593Z,1.75
2023-03-13T11:00:30.036Z,1.55
2023-03-13T11:03:33.679Z,1.42
2023-03-13T11:06:35.780Z,1.30
2023-03-13T11:09:37.625Z,1.20
2023-03-13T11:12:49.372Z,1.30
2023-03-13T11:16:11.063Z,1.23
2023-03-13T11:19:51.962Z,1.35
2023-03-13T11:23:23.962Z,1.50
2023-03-13T11:26:39.332Z,1.20
2023-03-13T11:29:53.020Z,1.13
2023-03-13T11:36:01.325Z,1.13
2023-03-13T11:39:18.347Z,1.48
2023-03-13T11:42:40.131Z,1.20
2023-03-13T11:46:00.594Z,1.50
2023-03-13T11:49:45.589Z,1.77
2023-03-13T11:53:02.701Z,1.10
2023-03-13T11:56:16.285Z,1.83
2023-03-13T11:59:32.590Z,1.10
2023-03-13T12:02:44.255Z,1.27
2023-03-13T12:05:54.269Z,1.10
2023-03-13T12:09:28.088Z,1.33
2023-03-13T12:12:38.790Z,1.25
2023-03-13T12:15:42.278Z,1.13
2023-03-13T12:21:53.395Z,1.42
2023-03-13T12:25:00.828Z,1.30
2023-03-13T12:28:14.503Z,1.33
2023-03-13T12:34:39.935Z,1.20
2023-03-13T12:38:09.871Z,1.20
2023-03-13T12:41:43.278Z,1.40
2023-03-13T12:44:46.165Z,1.35
2023-03-13T12:48:15.913Z,1.17
2023-03-13T12:51:26.359Z,1.30
2023-03-13T12:54:51.330Z,1.60
2023-03-13T12:58:10.604Z,1.20
2023-03-13T13:01:26.533Z,1.38
2023-03-13T13:04:33.237Z,1.55
2023-03-13T13:07:38.212Z,1.25
2023-03-13T13:10:42.134Z,1.50
2023-03-13T13:13:44.896Z,1.10
2023-03-13T13:16:52.553Z,1.50
2023-03-13T13:19:56.502Z,1.20
2023-03-13T13:23:21.121Z,1.30
2023-03-13T13:26:36.378Z,1.50
2023-03-13T13:29:38.168Z,1.35
2023-03-13T13:33:08.345Z,1.20
2023-03-13T13:36:26.633Z,1.63
2023-03-13T13:39:50.311Z,1.40
2023-03-13T13:43:06.588Z,1.30
2023-03-13T13:46:10.860Z,1.40
2023-03-13T13:49:17.187Z,1.63
2023-03-13T13:52:31.364Z,1.17
2023-03-13T13:55:39.267Z,1.52
2023-03-13T13:58:45.643Z,1.30
2023-03-13T14:01:49.970Z,1.02
2023-03-13T14:04:57.982Z,1.00
2023-03-13T14:08:26.321Z,1.02
2023-03-13T14:11:37.706Z,1.30
2023-03-13T14:14:40.091Z,0.90
2023-03-13T14:17:50.756Z,1.25
2023-03-13T14:20:52.948Z,1.38
2023-03-13T14:23:55.177Z,1.50
2023-03-13T14:26:57.333Z,1.35
2023-03-13T14:30:09.430Z,1.45
2023-03-13T14:33:11.970Z,1.70
2023-03-13T14:36:14.211Z,2.00
2023-03-13T14:39:37.979Z,1.23
2023-03-13T14:42:46.861Z,1.35
2023-03-13T14:45:49.970Z,1.40
2023-03-13T14:48:55.690Z,1.30
2023-03-13T14:52:04.485Z,1.35
2023-03-13T14:55:22.725Z,1.50
2023-03-13T14:58:28.160Z,1.70
2023-03-13T15:01:30.751Z,1.52
2023-03-13T15:05:01.408Z,1.33
2023-03-13T15:08:03.463Z,1.45
2023-03-13T15:11:28.092Z,1.75
2023-03-13T15:14:34.930Z,1.80
2023-03-13T15:17:36.753Z,1.55
2023-03-13T15:20:38.531Z,1.50
2023-03-13T15:24:07.437Z,1.60
2023-03-13T15:27:17.580Z,1.40
2023-03-13T15:30:23.522Z,2.40
2023-03-13T15:33:29.011Z,1.60
2023-03-13T15:36:32.295Z,1.30
2023-03-13T15:39:34.166Z,2.05
2023-03-13T15:42:36.075Z,1.70
2023-03-13T15:45:40.114Z,1.88
2023-03-13T15:48:42.297Z,1.60
2023-03-13T15:51:44.310Z,1.60
2023-03-13T15:54:46.856Z,1.30
2023-03-13T15:57:50.377Z,1.80
2023-03-13T16:00:52.993Z,1.00
2023-03-13T16:03:54.890Z,1.52
2023-03-13T16:06:58.075Z,1.90
2023-03-13T16:09:59.882Z,1.48
2023-03-13T16:13:03.469Z,1.50
2023-03-13T16:16:17.981Z,1.20
2023-03-13T16:19:20.088Z,1.40
2023-03-13T16:22:21.943Z,1.80
2023-03-13T16:25:25.301Z,1.50
2023-03-13T16:31:31.605Z,1.70
2023-03-13T16:34:33.578Z,1.77
2023-03-13T16:37:35.435Z,1.92
2023-03-13T16:40:37.216Z,1.75
2023-03-13T16:43:39.180Z,1.90
2023-03-13T16:46:55.597Z,2.03
2023-03-13T16:50:34.865Z,1.73
2023-03-13T16:53:36.673Z,2.08
2023-03-13T16:56:43.409Z,1.70
2023-03-13T16:59:45.439Z,1.77
2023-03-13T17:02:47.551Z,1.55
2023-03-13T17:05:49.448Z,1.17
2023-03-13T17:08:51.700Z,2.10
2023-03-13T17:11:53.536Z,2.17
2023-03-13T17:14:55.359Z,2.30
2023-03-13T17:17:57.285Z,1.70
2023-03-13T17:20:59.093Z,2.33
2023-03-13T17:24:01.327Z,2.00
2023-03-13T17:27:03.414Z,1.85
2023-03-13T17:30:19.065Z,1.88
2023-03-13T17:33:21.028Z,2.13
2023-03-13T17:36:25.421Z,2.22
2023-03-13T17:39:27.286Z,2.22
2023-03-13T17:42:29.065Z,1.95
2023-03-13T17:45:36.791Z,2.80
2023-03-13T17:48:38.731Z,4.47
2023-03-13T17:51:41.701Z,2.65
2023-03-13T17:54:45.109Z,2.95
2023-03-13T18:00:50.785Z,2.70
2023-03-13T18:03:52.614Z,2.17
2023-03-13T18:06:54.699Z,2.10
2023-03-13T18:09:56.613Z,2.38
2023-03-13T18:12:59.241Z,2.38
2023-03-13T18:16:01.354Z,2.07
2023-03-13T18:19:05.232Z,3.63
2023-03-13T18:22:11.030Z,2.67
2023-03-13T18:25:14.065Z,2.53
2023-03-13T18:28:16.014Z,2.80
2023-03-13T18:31:18.073Z,2.65
2023-03-13T18:34:20.301Z,3.47
2023-03-13T18:37:28.371Z,2.50
2023-03-13T18:40:31.798Z,2.47
2023-03-13T18:46:35.330Z,2.40
2023-03-13T18:49:37.312Z,2.45
2023-03-13T18:52:39.120Z,2.28
2023-03-13T18:55:40.932Z,2.15
2023-03-13T18:58:43.211Z,2.28
2023-03-13T19:01:47.289Z,2.83
2023-03-13T19:04:49.562Z,1.80
2023-03-13T19:07:51.608Z,2.40
2023-03-13T19:10:53.711Z,2.35
2023-03-13T19:13:56.523Z,2.47
2023-03-13T19:16:58.690Z,2.90
2023-03-13T19:20:00.695Z,2.60
2023-03-13T19:23:02.539Z,3.10
2023-03-13T19:26:04.720Z,2.80
2023-03-13T19:29:18.049Z,2.08
2023-03-13T19:32:20.904Z,2.60
2023-03-13T19:35:22.860Z,2.35
2023-03-13T19:38:24.674Z,2.10
2023-03-13T19:41:27.774Z,2.05
2023-03-13T19:44:29.731Z,2.10
2023-03-13T19:47:31.684Z,2.38
2023-03-13T19:50:36.463Z,2.40
2023-03-13T19:53:39.682Z,2.35
2023-03-13T19:56:44.338Z,2.47
2023-03-13T19:59:46.336Z,2.13
2023-03-13T20:02:48.632Z,2.00
2023-03-13T20:05:51.572Z,2.20
2023-03-13T20:09:01.166Z,2.33
2023-03-13T20:12:03.196Z,1.55
2023-03-13T20:15:07.119Z,2.15
2023-03-13T20:18:08.924Z,2.10
2023-03-13T20:21:11.550Z,2.10
2023-03-13T20:24:13.812Z,2.00
2023-03-13T20:27:15.772Z,1.85
2023-03-13T20:30:17.849Z,2.10
2023-03-13T20:33:19.858Z,1.73
2023-03-13T20:36:22.549Z,1.98
2023-03-13T20:39:24.601Z,2.45
2023-03-13T20:42:26.431Z,2.65
2023-03-13T20:45:31.695Z,2.60
2023-03-13T20:48:40.200Z,1.88
2023-03-13T20:51:42.460Z,1.90
2023-03-13T20:54:44.289Z,2.35
2023-03-13T20:57:46.021Z,1.80
2023-03-13T21:00:49.524Z,1.98
2023-03-13T21:03:51.784Z,2.47
2023-03-13T21:06:54.266Z,2.38
2023-03-13T21:09:56.587Z,2.40
2023-03-13T21:12:58.367Z,2.00
2023-03-13T21:16:01.789Z,1.70
2023-03-13T21:25:17.522Z,1.70
2023-03-13T21:28:20.017Z,1.52
2023-03-13T21:31:27.315Z,2.25
2023-03-13T21:34:29.908Z,1.90
2023-03-13T21:37:32.749Z,2.23
2023-03-13T21:40:34.966Z,2.00
2023-03-13T21:43:37.688Z,1.50
2023-03-13T21:46:39.550Z,1.80
2023-03-13T21:49:41.398Z,1.80
2023-03-13T21:52:43.473Z,1.70
2023-03-13T21:55:48.950Z,2.22
2023-03-13T21:58:50.896Z,2.53
2023-03-13T22:01:52.785Z,2.92
2023-03-13T22:04:56.077Z,2.28
2023-03-13T22:07:57.862Z,2.08
2023-03-13T22:10:59.914Z,1.90
2023-03-13T22:14:02.057Z,1.90
2023-03-13T22:17:04.339Z,1.70
2023-03-13T22:20:07.310Z,2.03
2023-03-13T22:23:10.819Z,1.50
2023-03-13T22:26:20.473Z,2.05
2023-03-13T22:29:24.022Z,2.25
2023-03-13T22:32:26.589Z,1.92
2023-03-13T22:35:28.553Z,1.67
2023-03-13T22:38:30.984Z,2.03
2023-03-13T22:41:32.712Z,1.80
2023-03-13T22:44:35.363Z,2.33
2023-03-13T22:47:37.204Z,1.95
2023-03-13T22:50:42.154Z,1.52
2023-03-13T22:53:43.993Z,2.08
2023-03-13T22:56:46.598Z,1.95
2023-03-13T22:59:48.440Z,2.33
2023-03-13T23:02:51.782Z,1.80
2023-03-13T23:09:04.014Z,2.25
2023-03-13T23:12:06.190Z,2.28
2023-03-13T23:15:09.481Z,2.40
2023-03-13T23:18:12.049Z,2.08
2023-03-13T23:21:16.266Z,2.47
2023-03-13T23:24:19.930Z,2.30
2023-03-13T23:27:22.997Z,1.80
2023-03-13T23:30:25.114Z,1.40
2023-03-13T23:33:28.627Z,1.13
2023-03-13T23:36:30.513Z,1.55
2023-03-13T23:39:34.033Z,1.13
2023-03-13T23:42:36.041Z,0.80
2023-03-13T23:45:38.024Z,0.80
2023-03-13T23:48:40.050Z,1.00
2023-03-13T23:51:42.151Z,1.10
2023-03-13T23:54:44.207Z,1.33
2023-03-13T23:57:50.533Z,1.08
